RYR20KL EDDK-LEPA
Flight info
| Callsign | RYR20KL |
|---|---|
| Flight time | 2h 8m |
| Altitude | 37000 |
| Route | NVO2R NVO Y868 NAVAK Z283 SOPOK DCT ROUSY DCT GTQ DCT POGOL DCT LASAT DCT MOROK DCT GILIR DCT GEVEA DCT INCUS DCT BALSI DCT RETNO DCT TUPOX DCT MTG DCT DIVKO DCT VATIR DCT PIVUS DCT BODEQ DCT VERSO L129 LUNIK |
| Aircraft | B738/M-SDE2E3FGHIRWXY/LB1 |
Departure
| Time | 2026-05-06 16:23 |
|---|---|
| Airport | Cologne Bonn Airport (EDDK) |
Arrival
| Time | 2026-05-06 18:31 |
|---|---|
| Airport | Palma de Mallorca Airport (LEPA) |
| Time | Latitude | Longitude | Altitude | Speed | Heading |
|---|---|---|---|---|---|
| 2026-05-06 15:46 | 50.87872 | 7.12466 | 231 ft | 0 kts | 288° |
| 2026-05-06 16:10 | 50.87866 | 7.12500 | 233 ft | 4 kts | 288° |
| 2026-05-06 16:10 | 50.87859 | 7.12533 | 231 ft | 4 kts | 287° |
| 2026-05-06 16:10 | 50.87856 | 7.12573 | 231 ft | 4 kts | 251° |
| 2026-05-06 16:10 | 50.87870 | 7.12602 | 234 ft | 4 kts | 201° |
| 2026-05-06 16:11 | 50.87894 | 7.12615 | 234 ft | 4 kts | 198° |
| 2026-05-06 16:11 | 50.87904 | 7.12620 | 232 ft | 1 kts | 198° |
| 2026-05-06 16:14 | 50.87901 | 7.12619 | 231 ft | 4 kts | 198° |
| 2026-05-06 16:14 | 50.87847 | 7.12616 | 231 ft | 10 kts | 168° |
| 2026-05-06 16:14 | 50.87801 | 7.12654 | 232 ft | 6 kts | 140° |
| 2026-05-06 16:15 | 50.87768 | 7.12701 | 231 ft | 7 kts | 138° |
| 2026-05-06 16:15 | 50.87728 | 7.12758 | 231 ft | 9 kts | 137° |
| 2026-05-06 16:15 | 50.87673 | 7.12838 | 231 ft | 12 kts | 137° |
| 2026-05-06 16:15 | 50.87601 | 7.12941 | 231 ft | 15 kts | 137° |
| 2026-05-06 16:16 | 50.87515 | 7.13067 | 231 ft | 18 kts | 137° |
| 2026-05-06 16:16 | 50.87414 | 7.13212 | 231 ft | 21 kts | 137° |
| 2026-05-06 16:16 | 50.87304 | 7.13372 | 231 ft | 22 kts | 137° |
| 2026-05-06 16:16 | 50.87191 | 7.13535 | 237 ft | 22 kts | 137° |
| 2026-05-06 16:17 | 50.87082 | 7.13693 | 240 ft | 21 kts | 138° |
| 2026-05-06 16:17 | 50.86975 | 7.13846 | 244 ft | 20 kts | 137° |
| 2026-05-06 16:17 | 50.86873 | 7.13995 | 253 ft | 20 kts | 137° |
| 2026-05-06 16:17 | 50.86766 | 7.14125 | 254 ft | 19 kts | 163° |
| 2026-05-06 16:18 | 50.86660 | 7.14244 | 259 ft | 19 kts | 138° |
| 2026-05-06 16:18 | 50.86631 | 7.14418 | 262 ft | 18 kts | 67° |
| 2026-05-06 16:18 | 50.86684 | 7.14593 | 264 ft | 17 kts | 64° |
| 2026-05-06 16:18 | 50.86735 | 7.14763 | 267 ft | 17 kts | 64° |
| 2026-05-06 16:19 | 50.86784 | 7.14926 | 269 ft | 16 kts | 64° |
| 2026-05-06 16:19 | 50.86832 | 7.15082 | 273 ft | 15 kts | 65° |
| 2026-05-06 16:19 | 50.86877 | 7.15233 | 274 ft | 15 kts | 64° |
| 2026-05-06 16:19 | 50.86921 | 7.15377 | 276 ft | 14 kts | 64° |
| 2026-05-06 16:20 | 50.86968 | 7.15477 | 277 ft | 9 kts | 75° |
| 2026-05-06 16:20 | 50.86943 | 7.15502 | 277 ft | 3 kts | 234° |
| 2026-05-06 16:20 | 50.86942 | 7.15469 | 278 ft | 3 kts | 268° |
| 2026-05-06 16:20 | 50.86938 | 7.15437 | 277 ft | 3 kts | 249° |
| 2026-05-06 16:21 | 50.86935 | 7.15429 | 277 ft | 0 kts | 246° |
| 2026-05-06 16:22 | 50.86918 | 7.15370 | 276 ft | 28 kts | 244° |
| 2026-05-06 16:22 | 50.86721 | 7.14714 | 267 ft | 102 kts | 244° |
| 2026-05-06 16:22 | 50.86352 | 7.13370 | 296 ft | 158 kts | 252° |
| 2026-05-06 16:22 | 50.85832 | 7.11722 | 840 ft | 174 kts | 245° |
| 2026-05-06 16:23 | 50.85269 | 7.09921 | 1600 ft | 189 kts | 248° |
| 2026-05-06 16:23 | 50.84655 | 7.07862 | 1687 ft | 234 kts | 248° |
| 2026-05-06 16:23 | 50.83976 | 7.05422 | 2052 ft | 252 kts | 253° |
| 2026-05-06 16:23 | 50.83623 | 7.02807 | 2468 ft | 226 kts | 268° |
| 2026-05-06 16:24 | 50.83639 | 7.00381 | 2392 ft | 212 kts | 276° |
| 2026-05-06 16:24 | 50.83747 | 6.98095 | 2213 ft | 210 kts | 279° |
| 2026-05-06 16:24 | 50.83760 | 6.95802 | 2221 ft | 210 kts | 270° |
| 2026-05-06 16:24 | 50.83660 | 6.93448 | 2410 ft | 226 kts | 268° |
| 2026-05-06 16:25 | 50.83542 | 6.90915 | 3047 ft | 234 kts | 269° |
| 2026-05-06 16:25 | 50.83421 | 6.88341 | 3771 ft | 236 kts | 268° |
| 2026-05-06 16:25 | 50.83299 | 6.85730 | 4479 ft | 239 kts | 268° |
| 2026-05-06 16:25 | 50.83178 | 6.83097 | 5180 ft | 242 kts | 269° |
| 2026-05-06 16:26 | 50.83056 | 6.80379 | 5670 ft | 257 kts | 268° |
| 2026-05-06 16:26 | 50.82926 | 6.77490 | 6315 ft | 267 kts | 268° |
| 2026-05-06 16:26 | 50.82794 | 6.74557 | 7268 ft | 268 kts | 268° |
| 2026-05-06 16:26 | 50.82661 | 6.71617 | 8269 ft | 268 kts | 267° |
| 2026-05-06 16:27 | 50.82524 | 6.68605 | 9129 ft | 275 kts | 266° |
| 2026-05-06 16:27 | 50.82386 | 6.65587 | 10066 ft | 276 kts | 266° |
| 2026-05-06 16:27 | 50.82268 | 6.62465 | 10496 ft | 297 kts | 269° |
| 2026-05-06 16:27 | 50.82278 | 6.59061 | 10765 ft | 320 kts | 271° |
| 2026-05-06 16:28 | 50.82335 | 6.55490 | 11399 ft | 330 kts | 273° |
| 2026-05-06 16:28 | 50.82398 | 6.51821 | 12149 ft | 336 kts | 273° |
| 2026-05-06 16:28 | 50.82438 | 6.49371 | 12755 ft | 337 kts | 272° |
| 2026-05-06 16:28 | 50.82443 | 6.45663 | 13661 ft | 339 kts | 264° |
| 2026-05-06 16:29 | 50.81669 | 6.42146 | 14359 ft | 346 kts | 237° |
| 2026-05-06 16:29 | 50.79992 | 6.39401 | 15116 ft | 351 kts | 219° |
| 2026-05-06 16:29 | 50.78020 | 6.37081 | 15839 ft | 356 kts | 217° |
| 2026-05-06 16:29 | 50.75995 | 6.34800 | 16544 ft | 360 kts | 217° |
| 2026-05-06 16:30 | 50.73937 | 6.32500 | 17260 ft | 364 kts | 217° |
| 2026-05-06 16:30 | 50.72568 | 6.30965 | 17718 ft | 367 kts | 216° |
| 2026-05-06 16:30 | 50.69770 | 6.27808 | 18581 ft | 371 kts | 217° |
| 2026-05-06 16:30 | 50.67680 | 6.25434 | 19265 ft | 371 kts | 217° |
| 2026-05-06 16:31 | 50.65574 | 6.23035 | 19866 ft | 375 kts | 216° |
| 2026-05-06 16:31 | 50.63449 | 6.20610 | 20373 ft | 380 kts | 216° |
| 2026-05-06 16:31 | 50.61308 | 6.18164 | 21050 ft | 380 kts | 216° |
| 2026-05-06 16:31 | 50.59169 | 6.15722 | 21698 ft | 382 kts | 216° |
| 2026-05-06 16:32 | 50.57002 | 6.13250 | 22190 ft | 387 kts | 216° |
| 2026-05-06 16:32 | 50.54805 | 6.10746 | 22757 ft | 390 kts | 216° |
| 2026-05-06 16:32 | 50.52612 | 6.08249 | 23416 ft | 390 kts | 216° |
| 2026-05-06 16:32 | 50.50403 | 6.05738 | 23847 ft | 394 kts | 216° |
| 2026-05-06 16:33 | 50.48163 | 6.03195 | 24240 ft | 397 kts | 216° |
| 2026-05-06 16:33 | 50.45935 | 6.00666 | 24834 ft | 397 kts | 215° |
| 2026-05-06 16:33 | 50.43676 | 5.98109 | 25184 ft | 403 kts | 215° |
| 2026-05-06 16:34 | 50.39071 | 5.92902 | 25951 ft | 411 kts | 215° |
| 2026-05-06 16:34 | 50.36754 | 5.90286 | 26477 ft | 411 kts | 215° |
| 2026-05-06 16:34 | 50.34426 | 5.87660 | 26843 ft | 415 kts | 215° |
| 2026-05-06 16:34 | 50.32103 | 5.85043 | 27158 ft | 419 kts | 214° |
| 2026-05-06 16:35 | 50.29728 | 5.82373 | 27586 ft | 421 kts | 214° |
| 2026-05-06 16:35 | 50.27218 | 5.79922 | 27986 ft | 421 kts | 201° |
| 2026-05-06 16:35 | 50.24384 | 5.78836 | 28475 ft | 420 kts | 185° |
| 2026-05-06 16:35 | 50.21287 | 5.79060 | 28939 ft | 422 kts | 168° |
| 2026-05-06 16:36 | 50.18613 | 5.80141 | 29226 ft | 426 kts | 165° |
| 2026-05-06 16:36 | 50.15765 | 5.81439 | 29610 ft | 427 kts | 164° |
| 2026-05-06 16:36 | 50.12911 | 5.82775 | 29980 ft | 429 kts | 164° |
| 2026-05-06 16:36 | 50.10086 | 5.84089 | 30245 ft | 432 kts | 164° |
| 2026-05-06 16:37 | 50.07197 | 5.85412 | 30552 ft | 432 kts | 164° |
| 2026-05-06 16:37 | 50.04317 | 5.86712 | 31024 ft | 430 kts | 165° |
| 2026-05-06 16:37 | 50.01442 | 5.87994 | 31411 ft | 430 kts | 165° |
| 2026-05-06 16:37 | 49.98526 | 5.89284 | 31743 ft | 431 kts | 165° |
| 2026-05-06 16:38 | 49.95638 | 5.90557 | 32122 ft | 430 kts | 165° |
| 2026-05-06 16:38 | 49.92806 | 5.91802 | 32540 ft | 429 kts | 166° |
| 2026-05-06 16:38 | 49.89943 | 5.93060 | 32975 ft | 427 kts | 166° |
| 2026-05-06 16:38 | 49.87090 | 5.94312 | 33353 ft | 427 kts | 166° |
| 2026-05-06 16:39 | 49.84226 | 5.95567 | 33664 ft | 428 kts | 166° |
| 2026-05-06 16:39 | 49.81363 | 5.96821 | 33967 ft | 428 kts | 166° |
| 2026-05-06 16:39 | 49.78503 | 5.98072 | 34332 ft | 425 kts | 166° |
| 2026-05-06 16:39 | 49.75665 | 5.99313 | 34674 ft | 424 kts | 166° |
| 2026-05-06 16:40 | 49.72820 | 6.00555 | 34890 ft | 426 kts | 166° |
| 2026-05-06 16:40 | 49.69922 | 6.01818 | 35107 ft | 427 kts | 166° |
| 2026-05-06 16:40 | 49.67099 | 6.03047 | 35381 ft | 427 kts | 166° |
| 2026-05-06 16:40 | 49.64240 | 6.04291 | 35667 ft | 427 kts | 166° |
| 2026-05-06 16:41 | 49.61382 | 6.05532 | 35909 ft | 427 kts | 166° |
| 2026-05-06 16:41 | 49.58480 | 6.06792 | 36144 ft | 428 kts | 166° |
| 2026-05-06 16:41 | 49.55612 | 6.08035 | 36411 ft | 428 kts | 166° |
| 2026-05-06 16:41 | 49.52786 | 6.09258 | 36680 ft | 427 kts | 166° |
| 2026-05-06 16:42 | 49.49931 | 6.10548 | 36832 ft | 431 kts | 162° |
| 2026-05-06 16:42 | 49.44618 | 6.14980 | 36822 ft | 440 kts | 144° |
| 2026-05-06 16:43 | 49.39883 | 6.20902 | 36830 ft | 436 kts | 143° |
| 2026-05-06 16:43 | 49.35221 | 6.26781 | 36830 ft | 432 kts | 143° |
| 2026-05-06 16:44 | 49.30557 | 6.32572 | 36834 ft | 430 kts | 144° |
| 2026-05-06 16:44 | 49.25899 | 6.38305 | 36845 ft | 429 kts | 144° |
| 2026-05-06 16:45 | 49.21240 | 6.44017 | 36847 ft | 429 kts | 144° |
| 2026-05-06 16:45 | 49.16587 | 6.49711 | 36848 ft | 429 kts | 144° |
| 2026-05-06 16:46 | 49.11924 | 6.55404 | 36851 ft | 429 kts | 144° |
| 2026-05-06 16:46 | 49.07248 | 6.61101 | 36845 ft | 431 kts | 144° |
| 2026-05-06 16:47 | 49.02556 | 6.66802 | 36846 ft | 432 kts | 144° |
| 2026-05-06 16:47 | 49.00078 | 6.69339 | 36832 ft | 428 kts | 157° |
| 2026-05-06 16:47 | 48.97307 | 6.70896 | 36854 ft | 423 kts | 168° |
| 2026-05-06 16:47 | 48.94405 | 6.71566 | 36840 ft | 421 kts | 181° |
| 2026-05-06 16:48 | 48.91484 | 6.71472 | 36865 ft | 420 kts | 183° |
| 2026-05-06 16:48 | 48.88559 | 6.71309 | 36615 ft | 421 kts | 183° |
| 2026-05-06 16:48 | 48.85655 | 6.71148 | 36723 ft | 413 kts | 183° |
| 2026-05-06 16:49 | 48.79978 | 6.70878 | 36803 ft | 406 kts | 182° |
| 2026-05-06 16:49 | 48.74325 | 6.70639 | 36839 ft | 407 kts | 182° |
| 2026-05-06 16:50 | 48.68657 | 6.70415 | 36850 ft | 408 kts | 182° |
| 2026-05-06 16:50 | 48.62960 | 6.70194 | 36855 ft | 410 kts | 182° |
| 2026-05-06 16:51 | 48.57251 | 6.69972 | 36850 ft | 411 kts | 182° |
| 2026-05-06 16:51 | 48.51525 | 6.69750 | 36855 ft | 412 kts | 182° |
| 2026-05-06 16:52 | 48.45794 | 6.69528 | 36851 ft | 412 kts | 182° |
| 2026-05-06 16:52 | 48.40056 | 6.69306 | 36854 ft | 412 kts | 182° |
| 2026-05-06 16:53 | 48.34327 | 6.69089 | 36855 ft | 412 kts | 182° |
| 2026-05-06 16:53 | 48.28604 | 6.68875 | 36860 ft | 411 kts | 182° |
| 2026-05-06 16:54 | 48.22895 | 6.68662 | 36857 ft | 410 kts | 182° |
| 2026-05-06 16:54 | 48.17197 | 6.68449 | 36867 ft | 409 kts | 182° |
| 2026-05-06 16:55 | 48.11514 | 6.68237 | 36868 ft | 408 kts | 182° |
| 2026-05-06 16:55 | 48.05840 | 6.68026 | 36869 ft | 408 kts | 182° |
| 2026-05-06 16:56 | 48.00169 | 6.67816 | 36865 ft | 407 kts | 182° |
| 2026-05-06 16:56 | 47.94507 | 6.67606 | 36878 ft | 407 kts | 182° |
| 2026-05-06 16:57 | 47.88842 | 6.67396 | 36877 ft | 407 kts | 182° |
| 2026-05-06 16:57 | 47.83179 | 6.67187 | 36882 ft | 407 kts | 182° |
| 2026-05-06 16:58 | 47.77511 | 6.66979 | 36874 ft | 407 kts | 182° |
| 2026-05-06 16:58 | 47.71839 | 6.66771 | 36882 ft | 408 kts | 182° |
| 2026-05-06 16:59 | 47.66160 | 6.66563 | 36878 ft | 409 kts | 182° |
| 2026-05-06 16:59 | 47.60509 | 6.66356 | 36892 ft | 409 kts | 182° |
| 2026-05-06 17:00 | 47.54805 | 6.66148 | 36870 ft | 410 kts | 183° |
| 2026-05-06 17:00 | 47.49101 | 6.65941 | 36883 ft | 411 kts | 183° |
| 2026-05-06 17:01 | 47.43386 | 6.65684 | 36885 ft | 411 kts | 187° |
| 2026-05-06 17:01 | 47.40611 | 6.64770 | 36895 ft | 409 kts | 200° |
| 2026-05-06 17:01 | 47.38009 | 6.63088 | 36894 ft | 409 kts | 209° |
| 2026-05-06 17:02 | 47.33497 | 6.57993 | 36903 ft | 410 kts | 220° |
| 2026-05-06 17:02 | 47.29186 | 6.52468 | 36895 ft | 411 kts | 220° |
| 2026-05-06 17:03 | 47.24848 | 6.46982 | 36904 ft | 411 kts | 219° |
| 2026-05-06 17:03 | 47.20487 | 6.41530 | 36920 ft | 412 kts | 219° |
| 2026-05-06 17:04 | 47.16116 | 6.36087 | 36909 ft | 412 kts | 219° |
| 2026-05-06 17:04 | 47.11747 | 6.30655 | 36913 ft | 411 kts | 219° |
| 2026-05-06 17:05 | 47.07155 | 6.25717 | 36920 ft | 410 kts | 206° |
| 2026-05-06 17:05 | 47.01746 | 6.23180 | 36902 ft | 411 kts | 188° |
| 2026-05-06 17:06 | 46.96980 | 6.22533 | 36912 ft | 411 kts | 186° |
| 2026-05-06 17:06 | 46.90365 | 6.21735 | 36913 ft | 410 kts | 187° |
| 2026-05-06 17:07 | 46.84682 | 6.21011 | 36915 ft | 410 kts | 187° |
| 2026-05-06 17:07 | 46.79004 | 6.20262 | 37115 ft | 412 kts | 187° |
| 2026-05-06 17:08 | 46.73217 | 6.19495 | 36984 ft | 422 kts | 187° |
| 2026-05-06 17:08 | 46.67359 | 6.18715 | 36926 ft | 423 kts | 187° |
| 2026-05-06 17:09 | 46.61498 | 6.17939 | 36916 ft | 423 kts | 187° |
| 2026-05-06 17:09 | 46.55639 | 6.17166 | 36907 ft | 422 kts | 187° |
| 2026-05-06 17:10 | 46.49795 | 6.16397 | 36905 ft | 421 kts | 187° |
| 2026-05-06 17:10 | 46.43970 | 6.15631 | 36905 ft | 420 kts | 187° |
| 2026-05-06 17:11 | 46.38160 | 6.14869 | 36905 ft | 419 kts | 188° |
| 2026-05-06 17:11 | 46.33344 | 6.14238 | 36909 ft | 418 kts | 188° |
| 2026-05-06 17:12 | 46.27562 | 6.13482 | 36914 ft | 417 kts | 188° |
| 2026-05-06 17:12 | 46.21815 | 6.12510 | 36912 ft | 415 kts | 191° |
| 2026-05-06 17:13 | 46.16112 | 6.11202 | 36912 ft | 415 kts | 192° |
| 2026-05-06 17:13 | 46.10416 | 6.09894 | 36912 ft | 415 kts | 191° |
| 2026-05-06 17:14 | 46.04715 | 6.08622 | 36911 ft | 415 kts | 191° |
| 2026-05-06 17:14 | 45.99006 | 6.07365 | 36900 ft | 415 kts | 191° |
| 2026-05-06 17:15 | 45.93294 | 6.06110 | 36906 ft | 415 kts | 191° |
| 2026-05-06 17:15 | 45.87581 | 6.04857 | 36912 ft | 415 kts | 191° |
| 2026-05-06 17:16 | 45.81868 | 6.03602 | 36919 ft | 415 kts | 191° |
| 2026-05-06 17:16 | 45.76158 | 6.02342 | 36910 ft | 416 kts | 192° |
| 2026-05-06 17:17 | 45.70439 | 6.01082 | 36921 ft | 416 kts | 192° |
| 2026-05-06 17:17 | 45.64732 | 5.99828 | 36918 ft | 414 kts | 192° |
| 2026-05-06 17:18 | 45.58867 | 5.98541 | 36910 ft | 414 kts | 192° |
| 2026-05-06 17:18 | 45.53322 | 5.97328 | 36903 ft | 415 kts | 192° |
| 2026-05-06 17:19 | 45.47618 | 5.96075 | 36908 ft | 414 kts | 193° |
| 2026-05-06 17:19 | 45.41999 | 5.94425 | 36905 ft | 411 kts | 195° |
| 2026-05-06 17:20 | 45.36426 | 5.92631 | 36919 ft | 410 kts | 196° |
| 2026-05-06 17:20 | 45.30855 | 5.90856 | 36917 ft | 410 kts | 195° |
| 2026-05-06 17:21 | 45.25276 | 5.89108 | 36915 ft | 411 kts | 195° |
| 2026-05-06 17:21 | 45.19684 | 5.87370 | 36919 ft | 411 kts | 195° |
| 2026-05-06 17:22 | 45.14092 | 5.85638 | 36917 ft | 412 kts | 195° |
| 2026-05-06 17:22 | 45.08452 | 5.83894 | 36906 ft | 412 kts | 195° |
| 2026-05-06 17:23 | 45.02849 | 5.82166 | 36890 ft | 412 kts | 196° |
| 2026-05-06 17:23 | 44.97263 | 5.80447 | 36904 ft | 411 kts | 196° |
| 2026-05-06 17:24 | 44.91677 | 5.78729 | 36904 ft | 411 kts | 196° |
| 2026-05-06 17:24 | 44.86099 | 5.77018 | 36911 ft | 410 kts | 196° |
| 2026-05-06 17:25 | 44.80571 | 5.75326 | 36900 ft | 409 kts | 196° |
| 2026-05-06 17:25 | 44.75022 | 5.73630 | 36898 ft | 407 kts | 196° |
| 2026-05-06 17:26 | 44.69487 | 5.71943 | 36881 ft | 406 kts | 196° |
| 2026-05-06 17:26 | 44.63972 | 5.70264 | 36904 ft | 406 kts | 196° |
| 2026-05-06 17:27 | 44.58452 | 5.68587 | 36909 ft | 406 kts | 196° |
| 2026-05-06 17:27 | 44.52924 | 5.66910 | 36890 ft | 407 kts | 196° |
| 2026-05-06 17:28 | 44.47387 | 5.65235 | 36895 ft | 407 kts | 196° |
| 2026-05-06 17:28 | 44.41849 | 5.63561 | 36907 ft | 407 kts | 196° |
| 2026-05-06 17:29 | 44.36373 | 5.61636 | 36888 ft | 404 kts | 204° |
| 2026-05-06 17:29 | 44.31164 | 5.58738 | 36900 ft | 403 kts | 205° |
| 2026-05-06 17:30 | 44.25962 | 5.55811 | 36880 ft | 403 kts | 205° |
| 2026-05-06 17:30 | 44.20739 | 5.52924 | 36878 ft | 404 kts | 205° |
| 2026-05-06 17:31 | 44.15515 | 5.50063 | 36891 ft | 403 kts | 205° |
| 2026-05-06 17:31 | 44.10287 | 5.47209 | 36888 ft | 404 kts | 205° |
| 2026-05-06 17:32 | 44.05052 | 5.44355 | 36880 ft | 404 kts | 205° |
| 2026-05-06 17:32 | 43.99825 | 5.41511 | 36887 ft | 403 kts | 205° |
| 2026-05-06 17:33 | 43.94605 | 5.38681 | 36894 ft | 403 kts | 205° |
| 2026-05-06 17:33 | 43.89389 | 5.35866 | 36861 ft | 402 kts | 205° |
| 2026-05-06 17:34 | 43.84189 | 5.33065 | 36916 ft | 400 kts | 205° |
| 2026-05-06 17:34 | 43.79001 | 5.30273 | 36909 ft | 400 kts | 205° |
| 2026-05-06 17:35 | 43.73814 | 5.27485 | 36904 ft | 400 kts | 205° |
| 2026-05-06 17:35 | 43.68626 | 5.24704 | 36906 ft | 400 kts | 205° |
| 2026-05-06 17:36 | 43.60849 | 5.20543 | 36911 ft | 399 kts | 205° |
| 2026-05-06 17:36 | 43.55664 | 5.17775 | 36912 ft | 400 kts | 205° |
| 2026-05-06 17:37 | 43.50475 | 5.15010 | 36896 ft | 400 kts | 205° |
| 2026-05-06 17:37 | 43.45283 | 5.12248 | 36908 ft | 400 kts | 205° |
| 2026-05-06 17:38 | 43.40093 | 5.09486 | 36913 ft | 399 kts | 206° |
| 2026-05-06 17:38 | 43.35330 | 5.05715 | 36920 ft | 394 kts | 217° |
| 2026-05-06 17:39 | 43.30825 | 5.01400 | 36888 ft | 395 kts | 217° |
| 2026-05-06 17:39 | 43.26302 | 4.97112 | 36905 ft | 395 kts | 217° |
| 2026-05-06 17:40 | 43.21770 | 4.92845 | 36924 ft | 396 kts | 217° |
| 2026-05-06 17:40 | 43.17225 | 4.88579 | 36920 ft | 396 kts | 217° |
| 2026-05-06 17:41 | 43.12668 | 4.84310 | 36922 ft | 397 kts | 217° |
| 2026-05-06 17:41 | 43.08035 | 4.79977 | 36916 ft | 397 kts | 217° |
| 2026-05-06 17:42 | 43.03449 | 4.75976 | 36925 ft | 399 kts | 213° |
| 2026-05-06 17:42 | 42.98585 | 4.72306 | 36924 ft | 399 kts | 212° |
| 2026-05-06 17:43 | 42.93710 | 4.68664 | 36926 ft | 399 kts | 212° |
| 2026-05-06 17:43 | 42.88849 | 4.65012 | 36927 ft | 398 kts | 213° |
| 2026-05-06 17:44 | 42.84002 | 4.61359 | 36928 ft | 398 kts | 213° |
| 2026-05-06 17:44 | 42.79191 | 4.57735 | 36928 ft | 397 kts | 213° |
| 2026-05-06 17:45 | 42.74352 | 4.54096 | 36937 ft | 398 kts | 213° |
| 2026-05-06 17:45 | 42.69510 | 4.50461 | 36931 ft | 397 kts | 213° |
| 2026-05-06 17:46 | 42.64670 | 4.46834 | 36937 ft | 397 kts | 213° |
| 2026-05-06 17:46 | 42.59825 | 4.43211 | 36937 ft | 397 kts | 213° |
| 2026-05-06 17:47 | 42.54979 | 4.39593 | 36940 ft | 397 kts | 212° |
| 2026-05-06 17:47 | 42.50135 | 4.35982 | 36935 ft | 397 kts | 213° |
| 2026-05-06 17:48 | 42.45294 | 4.32381 | 36933 ft | 397 kts | 213° |
| 2026-05-06 17:48 | 42.40455 | 4.28787 | 36939 ft | 397 kts | 213° |
| 2026-05-06 17:49 | 42.35614 | 4.25198 | 36942 ft | 397 kts | 213° |
| 2026-05-06 17:49 | 42.30776 | 4.21617 | 36932 ft | 396 kts | 213° |
| 2026-05-06 17:50 | 42.25942 | 4.18046 | 36945 ft | 396 kts | 213° |
| 2026-05-06 17:50 | 42.21109 | 4.14480 | 36947 ft | 396 kts | 213° |
| 2026-05-06 17:51 | 42.16280 | 4.10926 | 36944 ft | 395 kts | 213° |
| 2026-05-06 17:51 | 42.11451 | 4.07373 | 36930 ft | 395 kts | 213° |
| 2026-05-06 17:52 | 42.06629 | 4.03828 | 36945 ft | 395 kts | 213° |
| 2026-05-06 17:52 | 42.01812 | 4.00292 | 36953 ft | 394 kts | 213° |
| 2026-05-06 17:53 | 41.97808 | 3.97357 | 36955 ft | 394 kts | 213° |
| 2026-05-06 17:53 | 41.92922 | 3.93990 | 36933 ft | 398 kts | 206° |
| 2026-05-06 17:54 | 41.87513 | 3.92171 | 36951 ft | 404 kts | 195° |
| 2026-05-06 17:54 | 41.81965 | 3.90936 | 36948 ft | 404 kts | 195° |
| 2026-05-06 17:55 | 41.76420 | 3.89673 | 36947 ft | 404 kts | 195° |
| 2026-05-06 17:55 | 41.70882 | 3.88388 | 36930 ft | 404 kts | 196° |
| 2026-05-06 17:56 | 41.65345 | 3.87101 | 36944 ft | 404 kts | 196° |
| 2026-05-06 17:56 | 41.59805 | 3.85817 | 36949 ft | 404 kts | 196° |
| 2026-05-06 17:57 | 41.54265 | 3.84549 | 36947 ft | 404 kts | 195° |
| 2026-05-06 17:57 | 41.48722 | 3.83287 | 36917 ft | 404 kts | 196° |
| 2026-05-06 17:58 | 41.43187 | 3.82027 | 36934 ft | 403 kts | 196° |
| 2026-05-06 17:58 | 41.37656 | 3.80768 | 36952 ft | 403 kts | 196° |
| 2026-05-06 17:59 | 41.32241 | 3.79536 | 36623 ft | 405 kts | 196° |
| 2026-05-06 17:59 | 41.29543 | 3.78925 | 36375 ft | 401 kts | 196° |
| 2026-05-06 17:59 | 41.27600 | 3.78487 | 36170 ft | 397 kts | 196° |
| 2026-05-06 18:00 | 41.24899 | 3.77877 | 35908 ft | 391 kts | 197° |
| 2026-05-06 18:00 | 41.22235 | 3.77274 | 35655 ft | 386 kts | 197° |
| 2026-05-06 18:00 | 41.19600 | 3.76677 | 35407 ft | 383 kts | 197° |
| 2026-05-06 18:00 | 41.16987 | 3.76086 | 35163 ft | 379 kts | 198° |
| 2026-05-06 18:01 | 41.14442 | 3.75306 | 34912 ft | 370 kts | 206° |
| 2026-05-06 18:01 | 41.12064 | 3.74105 | 34682 ft | 364 kts | 208° |
| 2026-05-06 18:01 | 41.09712 | 3.72870 | 34444 ft | 362 kts | 208° |
| 2026-05-06 18:01 | 41.07377 | 3.71646 | 34208 ft | 360 kts | 208° |
| 2026-05-06 18:02 | 41.05050 | 3.70431 | 33931 ft | 358 kts | 208° |
| 2026-05-06 18:02 | 41.02736 | 3.69228 | 33670 ft | 356 kts | 208° |
| 2026-05-06 18:02 | 41.00431 | 3.68034 | 33396 ft | 355 kts | 208° |
| 2026-05-06 18:02 | 40.98136 | 3.66849 | 33121 ft | 353 kts | 208° |
| 2026-05-06 18:03 | 40.95850 | 3.65670 | 32851 ft | 352 kts | 208° |
| 2026-05-06 18:03 | 40.93575 | 3.64499 | 32587 ft | 350 kts | 208° |
| 2026-05-06 18:03 | 40.91309 | 3.63334 | 32323 ft | 349 kts | 208° |
| 2026-05-06 18:03 | 40.89051 | 3.62173 | 32059 ft | 348 kts | 208° |
| 2026-05-06 18:04 | 40.86807 | 3.61022 | 31789 ft | 343 kts | 208° |
| 2026-05-06 18:04 | 40.84593 | 3.59889 | 31448 ft | 339 kts | 208° |
| 2026-05-06 18:04 | 40.82410 | 3.58771 | 31131 ft | 335 kts | 208° |
| 2026-05-06 18:04 | 40.80242 | 3.57661 | 30786 ft | 333 kts | 208° |
| 2026-05-06 18:05 | 40.78090 | 3.56559 | 30457 ft | 330 kts | 208° |
| 2026-05-06 18:05 | 40.75985 | 3.55481 | 30129 ft | 328 kts | 208° |
| 2026-05-06 18:05 | 40.73841 | 3.54385 | 29762 ft | 325 kts | 208° |
| 2026-05-06 18:05 | 40.71764 | 3.53324 | 29421 ft | 322 kts | 208° |
| 2026-05-06 18:06 | 40.69663 | 3.52252 | 29063 ft | 318 kts | 208° |
| 2026-05-06 18:06 | 40.67611 | 3.51205 | 28740 ft | 314 kts | 208° |
| 2026-05-06 18:06 | 40.65583 | 3.50171 | 28410 ft | 311 kts | 208° |
| 2026-05-06 18:06 | 40.63599 | 3.49160 | 28082 ft | 308 kts | 208° |
| 2026-05-06 18:07 | 40.61606 | 3.48144 | 27756 ft | 307 kts | 208° |
| 2026-05-06 18:07 | 40.59624 | 3.47134 | 27432 ft | 305 kts | 208° |
| 2026-05-06 18:07 | 40.57640 | 3.46123 | 27124 ft | 308 kts | 208° |
| 2026-05-06 18:07 | 40.55604 | 3.45083 | 26800 ft | 320 kts | 207° |
| 2026-05-06 18:08 | 40.53506 | 3.44013 | 26447 ft | 325 kts | 207° |
| 2026-05-06 18:08 | 40.51398 | 3.42946 | 26091 ft | 323 kts | 207° |
| 2026-05-06 18:08 | 40.49304 | 3.41888 | 25739 ft | 321 kts | 207° |
| 2026-05-06 18:08 | 40.47229 | 3.40839 | 25397 ft | 319 kts | 207° |
| 2026-05-06 18:09 | 40.45169 | 3.39802 | 25058 ft | 317 kts | 205° |
| 2026-05-06 18:09 | 40.42985 | 3.39225 | 24774 ft | 325 kts | 189° |
| 2026-05-06 18:09 | 40.40737 | 3.39268 | 24483 ft | 324 kts | 185° |
| 2026-05-06 18:09 | 40.38488 | 3.39416 | 24185 ft | 323 kts | 184° |
| 2026-05-06 18:10 | 40.36254 | 3.39487 | 23726 ft | 320 kts | 192° |
| 2026-05-06 18:10 | 40.34090 | 3.38856 | 23105 ft | 319 kts | 204° |
| 2026-05-06 18:10 | 40.32074 | 3.37722 | 22634 ft | 311 kts | 212° |
| 2026-05-06 18:10 | 40.30181 | 3.36410 | 22082 ft | 306 kts | 213° |
| 2026-05-06 18:11 | 40.28314 | 3.35072 | 21435 ft | 306 kts | 213° |
| 2026-05-06 18:11 | 40.26451 | 3.33729 | 20832 ft | 305 kts | 213° |
| 2026-05-06 18:11 | 40.24602 | 3.32401 | 20281 ft | 302 kts | 213° |
| 2026-05-06 18:11 | 40.22763 | 3.31087 | 19729 ft | 300 kts | 213° |
| 2026-05-06 18:12 | 40.20930 | 3.29783 | 19186 ft | 299 kts | 213° |
| 2026-05-06 18:12 | 40.19106 | 3.28489 | 18618 ft | 298 kts | 212° |
| 2026-05-06 18:12 | 40.17270 | 3.27188 | 18093 ft | 302 kts | 212° |
| 2026-05-06 18:12 | 40.15429 | 3.25888 | 17799 ft | 298 kts | 212° |
| 2026-05-06 18:13 | 40.13612 | 3.24608 | 17515 ft | 295 kts | 212° |
| 2026-05-06 18:13 | 40.11808 | 3.23337 | 17155 ft | 294 kts | 212° |
| 2026-05-06 18:13 | 40.10023 | 3.22082 | 16975 ft | 287 kts | 212° |
| 2026-05-06 18:13 | 40.08295 | 3.20869 | 16945 ft | 278 kts | 212° |
| 2026-05-06 18:14 | 40.06623 | 3.19696 | 16937 ft | 277 kts | 212° |
| 2026-05-06 18:14 | 40.04925 | 3.18401 | 16876 ft | 279 kts | 222° |
| 2026-05-06 18:14 | 40.03568 | 3.16659 | 16610 ft | 277 kts | 230° |
| 2026-05-06 18:14 | 40.02303 | 3.14764 | 16220 ft | 278 kts | 231° |
| 2026-05-06 18:15 | 40.01028 | 3.12803 | 15595 ft | 288 kts | 232° |
| 2026-05-06 18:15 | 39.99735 | 3.10793 | 15167 ft | 290 kts | 232° |
| 2026-05-06 18:15 | 39.98446 | 3.08778 | 14829 ft | 288 kts | 232° |
| 2026-05-06 18:15 | 39.97167 | 3.06767 | 14460 ft | 289 kts | 232° |
| 2026-05-06 18:16 | 39.95888 | 3.04745 | 14138 ft | 288 kts | 232° |
| 2026-05-06 18:16 | 39.94623 | 3.02735 | 13835 ft | 286 kts | 232° |
| 2026-05-06 18:16 | 39.93369 | 3.00733 | 13487 ft | 285 kts | 232° |
| 2026-05-06 18:16 | 39.92118 | 2.98732 | 13115 ft | 285 kts | 232° |
| 2026-05-06 18:17 | 39.90870 | 2.96733 | 12757 ft | 284 kts | 232° |
| 2026-05-06 18:17 | 39.89626 | 2.94740 | 12375 ft | 284 kts | 232° |
| 2026-05-06 18:17 | 39.88383 | 2.92749 | 12033 ft | 283 kts | 232° |
| 2026-05-06 18:17 | 39.87141 | 2.90763 | 11710 ft | 282 kts | 232° |
| 2026-05-06 18:18 | 39.85905 | 2.88794 | 11367 ft | 281 kts | 232° |
| 2026-05-06 18:18 | 39.84668 | 2.86823 | 11003 ft | 281 kts | 232° |
| 2026-05-06 18:18 | 39.83434 | 2.84853 | 10674 ft | 281 kts | 232° |
| 2026-05-06 18:18 | 39.82201 | 2.82884 | 10356 ft | 280 kts | 232° |
| 2026-05-06 18:19 | 39.80969 | 2.80919 | 10036 ft | 280 kts | 232° |
| 2026-05-06 18:19 | 39.79737 | 2.78955 | 9676 ft | 280 kts | 232° |
| 2026-05-06 18:19 | 39.78509 | 2.77002 | 9353 ft | 278 kts | 232° |
| 2026-05-06 18:19 | 39.77288 | 2.75056 | 9057 ft | 277 kts | 232° |
| 2026-05-06 18:20 | 39.76073 | 2.73106 | 8675 ft | 279 kts | 232° |
| 2026-05-06 18:20 | 39.74853 | 2.71140 | 8337 ft | 279 kts | 232° |
| 2026-05-06 18:20 | 39.73639 | 2.69177 | 8035 ft | 278 kts | 232° |
| 2026-05-06 18:20 | 39.72436 | 2.67223 | 7738 ft | 276 kts | 232° |
| 2026-05-06 18:21 | 39.71240 | 2.65281 | 7460 ft | 274 kts | 232° |
| 2026-05-06 18:21 | 39.70053 | 2.63363 | 7173 ft | 272 kts | 232° |
| 2026-05-06 18:21 | 39.68867 | 2.61450 | 6861 ft | 272 kts | 232° |
| 2026-05-06 18:21 | 39.67685 | 2.59543 | 6556 ft | 270 kts | 232° |
| 2026-05-06 18:22 | 39.66523 | 2.57667 | 6460 ft | 262 kts | 232° |
| 2026-05-06 18:22 | 39.65395 | 2.55843 | 6252 ft | 258 kts | 232° |
| 2026-05-06 18:22 | 39.64277 | 2.54041 | 6062 ft | 256 kts | 232° |
| 2026-05-06 18:22 | 39.63156 | 2.52230 | 6020 ft | 260 kts | 232° |
| 2026-05-06 18:23 | 39.62031 | 2.50403 | 6000 ft | 258 kts | 232° |
| 2026-05-06 18:23 | 39.60928 | 2.48607 | 5990 ft | 258 kts | 232° |
| 2026-05-06 18:23 | 39.59811 | 2.46789 | 5993 ft | 257 kts | 232° |
| 2026-05-06 18:23 | 39.58682 | 2.44955 | 5998 ft | 258 kts | 232° |
| 2026-05-06 18:24 | 39.57426 | 2.43350 | 5984 ft | 259 kts | 211° |
| 2026-05-06 18:24 | 39.55734 | 2.42650 | 5885 ft | 257 kts | 185° |
| 2026-05-06 18:24 | 39.53963 | 2.42676 | 5548 ft | 253 kts | 178° |
| 2026-05-06 18:24 | 39.52204 | 2.42789 | 5066 ft | 253 kts | 177° |
| 2026-05-06 18:25 | 39.50471 | 2.42897 | 4858 ft | 242 kts | 176° |
| 2026-05-06 18:25 | 39.48825 | 2.42997 | 4635 ft | 233 kts | 176° |
| 2026-05-06 18:25 | 39.47267 | 2.43461 | 4249 ft | 231 kts | 149° |
| 2026-05-06 18:25 | 39.46150 | 2.44894 | 3884 ft | 228 kts | 117° |
| 2026-05-06 18:26 | 39.45776 | 2.46860 | 3525 ft | 226 kts | 94° |
| 2026-05-06 18:26 | 39.45714 | 2.48880 | 3173 ft | 224 kts | 92° |
| 2026-05-06 18:26 | 39.45678 | 2.50873 | 3029 ft | 217 kts | 90° |
| 2026-05-06 18:26 | 39.46047 | 2.52688 | 2999 ft | 205 kts | 57° |
| 2026-05-06 18:27 | 39.46848 | 2.54115 | 2919 ft | 188 kts | 63° |
| 2026-05-06 18:27 | 39.47404 | 2.55570 | 2736 ft | 175 kts | 62° |
| 2026-05-06 18:27 | 39.48029 | 2.56869 | 2521 ft | 164 kts | 59° |
| 2026-05-06 18:27 | 39.48631 | 2.58125 | 2310 ft | 164 kts | 60° |
| 2026-05-06 18:28 | 39.49222 | 2.59380 | 2078 ft | 162 kts | 60° |
| 2026-05-06 18:28 | 39.49804 | 2.60619 | 1868 ft | 160 kts | 60° |
| 2026-05-06 18:28 | 39.50363 | 2.61807 | 1679 ft | 146 kts | 60° |
| 2026-05-06 18:28 | 39.50876 | 2.62901 | 1461 ft | 141 kts | 61° |
| 2026-05-06 18:29 | 39.51388 | 2.63998 | 1311 ft | 143 kts | 60° |
| 2026-05-06 18:29 | 39.51911 | 2.65110 | 1085 ft | 148 kts | 59° |
| 2026-05-06 18:29 | 39.52450 | 2.66252 | 904 ft | 147 kts | 59° |
| 2026-05-06 18:29 | 39.52984 | 2.67390 | 663 ft | 151 kts | 57° |
| 2026-05-06 18:30 | 39.53529 | 2.68542 | 483 ft | 149 kts | 57° |
| 2026-05-06 18:30 | 39.54069 | 2.69694 | 296 ft | 150 kts | 57° |
| 2026-05-06 18:30 | 39.54610 | 2.70838 | 112 ft | 148 kts | 57° |
| 2026-05-06 18:30 | 39.55130 | 2.71931 | 37 ft | 130 kts | 59° |
| 2026-05-06 18:31 | 39.55437 | 2.72589 | 36 ft | 28 kts | 59° |
| 2026-05-06 18:31 | 39.55491 | 2.72795 | 37 ft | 22 kts | 83° |
| 2026-05-06 18:31 | 39.55497 | 2.72957 | 37 ft | 14 kts | 88° |
| 2026-05-06 18:31 | 39.55498 | 2.73063 | 37 ft | 11 kts | 89° |
| 2026-05-06 18:32 | 39.55503 | 2.73161 | 37 ft | 11 kts | 82° |
| 2026-05-06 18:32 | 39.55532 | 2.73243 | 35 ft | 10 kts | 59° |
| 2026-05-06 18:32 | 39.55567 | 2.73317 | 37 ft | 10 kts | 58° |
| 2026-05-06 18:32 | 39.55603 | 2.73392 | 37 ft | 10 kts | 58° |
| 2026-05-06 18:33 | 39.55623 | 2.73472 | 37 ft | 9 kts | 107° |
| 2026-05-06 18:33 | 39.55578 | 2.73533 | 37 ft | 10 kts | 147° |
| 2026-05-06 18:33 | 39.55518 | 2.73580 | 37 ft | 10 kts | 148° |
| 2026-05-06 18:33 | 39.55456 | 2.73629 | 37 ft | 11 kts | 149° |
| 2026-05-06 18:34 | 39.55391 | 2.73681 | 37 ft | 11 kts | 148° |
| 2026-05-06 18:34 | 39.55318 | 2.73739 | 37 ft | 13 kts | 148° |
| 2026-05-06 18:34 | 39.55234 | 2.73805 | 36 ft | 13 kts | 148° |
| 2026-05-06 18:34 | 39.55179 | 2.73805 | 35 ft | 8 kts | 225° |
| 2026-05-06 18:35 | 39.55176 | 2.73742 | 37 ft | 7 kts | 285° |
| 2026-05-06 18:35 | 39.55170 | 2.73678 | 37 ft | 7 kts | 242° |
| 2026-05-06 18:35 | 39.55138 | 2.73632 | 37 ft | 7 kts | 202° |
| 2026-05-06 18:35 | 39.55105 | 2.73622 | 37 ft | 3 kts | 191° |
| 2026-05-06 18:36 | 39.55094 | 2.73619 | 37 ft | 1 kts | 189° |
| 2026-05-06 18:36 | 39.55091 | 2.73619 | 37 ft | 0 kts | 189° |